Time;durP1;ratioP1;P1;durP2;ratioP2;P2;SDS_P1;SDS_P2;PMS_P1;PMS_P2;Temp;Humidity;BMP_temperature;BMP_pressure;BME280_temperature;BME280_humidity;BME280_pressure;Samples;Min_cycle;Max_cycle;Signal;HPM_P1;HPM_P2
2021/12/06 00:01:01;;;;;;;19.27;9.88;;;1.90;80.40;;;;;;5052621;28;20029;-75
2021/12/06 00:03:54;;;;;;;20.17;10.23;;;1.90;80.40;;;;;;5034352;28;20024;-74
2021/12/06 00:06:21;;;;;;;18.83;10.32;;;1.90;80.40;;;;;;5052299;28;20025;-74
2021/12/06 00:08:47;;;;;;;18.95;10.00;;;1.90;80.50;;;;;;5052273;28;20104;-74
2021/12/06 00:11:14;;;;;;;17.73;9.63;;;2.00;81.40;;;;;;5052142;28;20503;-74
2021/12/06 00:13:42;;;;;;;19.15;9.23;;;2.00;80.40;;;;;;5052229;28;20021;-76
2021/12/06 00:16:15;;;;;;;16.23;8.38;;;2.00;80.10;;;;;;5052217;28;20039;-73
2021/12/06 00:18:41;;;;;;;13.35;7.53;;;2.00;80.00;;;;;;5052968;28;20110;-74
2021/12/06 00:21:07;;;;;;;15.82;8.27;;;1.90;80.00;;;;;;5056027;28;20025;-75
2021/12/06 00:23:33;;;;;;;13.27;7.60;;;1.90;80.10;;;;;;5056041;28;20033;-76
2021/12/06 00:26:03;;;;;;;11.57;7.25;;;1.90;80.30;;;;;;5038101;28;20025;-76
2021/12/06 00:28:28;;;;;;;25.27;10.80;;;1.80;80.40;;;;;;5055876;28;20500;-75
2021/12/06 00:30:55;;;;;;;28.75;11.93;;;1.70;80.50;;;;;;5055549;28;20064;-75
2021/12/06 00:33:21;;;;;;;21.65;10.52;;;1.70;80.70;;;;;;5055733;28;20036;-75
2021/12/06 00:35:47;;;;;;;24.80;10.73;;;1.80;80.90;;;;;;5056200;28;20036;-75
2021/12/06 00:38:13;;;;;;;23.38;9.70;;;1.70;80.90;;;;;;5055378;28;20477;-75
2021/12/06 00:40:42;;;;;;;19.65;9.43;;;1.70;81.10;;;;;;5055766;28;20023;-75
2021/12/06 00:43:08;;;;;;;20.60;9.00;;;1.80;81.20;;;;;;5056594;28;20033;-76
2021/12/06 00:45:34;;;;;;;17.90;9.20;;;1.80;81.10;;;;;;5062202;28;20028;-75
2021/12/06 00:48:00;;;;;;;18.75;9.20;;;1.70;80.90;;;;;;5043654;28;20040;-76
2021/12/06 00:50:30;;;;;;;16.08;8.73;;;1.80;81.70;;;;;;5047606;28;20388;-75
2021/12/06 00:52:57;;;;;;;16.13;8.50;;;1.70;80.90;;;;;;5065509;28;20025;-75
2021/12/06 00:55:23;;;;;;;14.50;6.97;;;1.70;80.90;;;;;;5065879;28;20047;-75
2021/12/06 00:57:52;;;;;;;15.07;6.50;;;1.70;81.00;;;;;;5065077;28;20033;-76
2021/12/06 01:00:35;;;;;;;12.40;6.63;;;1.70;80.80;;;;;;5064794;28;20025;-76
2021/12/06 01:03:04;;;;;;;13.77;6.63;;;1.70;80.90;;;;;;5057135;28;20029;-75
2021/12/06 01:05:30;;;;;;;12.95;6.20;;;1.70;80.90;;;;;;5056103;28;20428;-75
2021/12/06 01:07:55;;;;;;;11.55;6.15;;;1.70;81.00;;;;;;5055455;28;20021;-75
2021/12/06 01:10:24;;;;;;;11.30;5.38;;;1.80;81.70;;;;;;5055106;28;20033;-75
2021/12/06 01:12:50;;;;;;;14.10;5.72;;;1.80;80.70;;;;;;5055208;28;20048;-75
2021/12/06 01:15:16;;;;;;;9.48;5.40;;;1.90;80.60;;;;;;5054881;28;20359;-74
2021/12/06 01:17:42;;;;;;;8.82;5.00;;;1.90;80.50;;;;;;5054855;28;20037;-75
2021/12/06 01:20:11;;;;;;;11.20;5.65;;;1.80;80.40;;;;;;5054845;28;20119;-75
2021/12/06 01:22:49;;;;;;;11.43;5.43;;;1.90;80.50;;;;;;5054873;28;20031;-75
2021/12/06 01:25:41;;;;;;;9.95;5.38;;;1.90;80.50;;;;;;5054751;28;20052;-75
2021/12/06 01:28:34;;;;;;;9.98;5.47;;;1.90;80.50;;;;;;5054018;28;20504;-76
2021/12/06 01:31:30;;;;;;;8.45;4.50;;;1.90;80.40;;;;;;5054417;28;20031;-75
2021/12/06 01:39:20;;;;;;;9.32;4.88;;;1.90;80.40;;;;;;5054766;28;20067;-77
2021/12/06 01:41:57;;;;;;;8.73;5.30;;;1.90;80.40;;;;;;5054288;28;20132;-76
2021/12/06 01:44:35;;;;;;;11.05;5.20;;;1.90;80.40;;;;;;5054048;28;20021;-76
2021/12/06 01:47:09;;;;;;;12.57;5.55;;;1.90;80.30;;;;;;5036278;28;20116;-76
2021/12/06 01:49:38;;;;;;;10.45;5.35;;;1.90;80.40;;;;;;5054219;28;20071;-74
2021/12/06 01:52:09;;;;;;;9.20;5.88;;;1.90;80.40;;;;;;5054024;28;20029;-74
2021/12/06 01:54:35;;;;;;;9.27;5.88;;;1.90;80.50;;;;;;5054217;28;20495;-74
2021/12/06 01:57:01;;;;;;;8.85;5.35;;;2.00;80.50;;;;;;5035930;28;20435;-74
2021/12/06 01:59:27;;;;;;;11.75;6.32;;;2.00;80.40;;;;;;5053825;28;20029;-74
2021/12/06 02:01:54;;;;;;;7.55;4.78;;;2.00;80.50;;;;;;5054025;28;20096;-74
2021/12/06 02:04:20;;;;;;;10.50;5.43;;;1.90;80.40;;;;;;5054047;28;20033;-74
2021/12/06 02:06:46;;;;;;;9.45;5.05;;;1.90;80.40;;;;;;5053984;28;20036;-74
2021/12/06 02:09:15;;;;;;;11.15;6.00;;;1.90;80.30;;;;;;5053967;28;20028;-74
2021/12/06 02:11:43;;;;;;;10.07;5.43;;;1.90;80.50;;;;;;5053828;28;20033;-74
2021/12/06 02:14:25;;;;;;;11.32;5.47;;;2.00;80.50;;;;;;5053973;28;20107;-75
2021/12/06 02:17:13;;;;;;;11.07;4.82;;;2.00;80.30;;;;;;5053692;28;20124;-75
2021/12/06 02:19:45;;;;;;;11.40;5.88;;;2.00;80.20;;;;;;5053809;28;20017;-75
2021/12/06 02:22:14;;;;;;;9.00;5.32;;;2.00;80.20;;;;;;5053668;28;20405;-75
2021/12/06 02:24:40;;;;;;;8.20;5.22;;;2.00;80.30;;;;;;5053728;28;20028;-76
2021/12/06 02:27:09;;;;;;;8.85;5.03;;;2.00;80.50;;;;;;5053564;28;20033;-76
2021/12/06 02:29:35;;;;;;;9.65;4.82;;;2.10;80.60;;;;;;5053541;28;20162;-76
2021/12/06 02:32:05;;;;;;;11.43;4.53;;;2.20;80.50;;;;;;5053363;28;20505;-76
2021/12/06 02:34:31;;;;;;;6.88;4.30;;;2.10;80.30;;;;;;5053603;28;20029;-76
2021/12/06 02:36:57;;;;;;;11.13;4.40;;;2.20;80.30;;;;;;5053345;28;20158;-76
2021/12/06 02:39:25;;;;;;;7.50;4.22;;;2.20;80.00;;;;;;5053427;28;20056;-76
2021/12/06 02:41:53;;;;;;;8.57;4.30;;;2.10;80.10;;;;;;5052936;28;20024;-76
2021/12/06 02:44:19;;;;;;;10.05;4.38;;;2.10;80.00;;;;;;5053397;28;20028;-76
2021/12/06 02:46:45;;;;;;;6.95;4.07;;;2.10;80.20;;;;;;5053243;28;20100;-76
2021/12/06 02:49:11;;;;;;;6.10;3.40;;;2.10;80.40;;;;;;5053114;28;20029;-76
2021/12/06 02:51:37;;;;;;;6.05;2.80;;;2.10;80.50;;;;;;5053279;28;20083;-76
2021/12/06 02:54:02;;;;;;;3.88;2.95;;;2.10;80.80;;;;;;5053295;28;20059;-76
2021/12/06 02:56:31;;;;;;;8.68;3.60;;;2.10;81.00;;;;;;5053232;28;20033;-76
2021/12/06 02:59:00;;;;;;;9.82;4.03;;;2.10;81.00;;;;;;5054250;28;20088;-76
2021/12/06 03:01:34;;;;;;;8.82;4.63;;;2.10;80.90;;;;;;5052953;28;20035;-76
2021/12/06 03:04:01;;;;;;;11.48;5.07;;;2.10;81.10;;;;;;5052947;28;20044;-75
2021/12/06 03:06:29;;;;;;;21.38;7.80;;;2.20;81.30;;;;;;5052868;28;20029;-75
2021/12/06 03:09:04;;;;;;;14.23;6.50;;;2.20;81.10;;;;;;5052612;28;20017;-75
2021/12/06 03:11:37;;;;;;;11.60;5.57;;;2.10;81.10;;;;;;5052948;28;20049;-75
2021/12/06 03:14:05;;;;;;;8.55;4.70;;;2.20;81.20;;;;;;5059281;28;20016;-75
2021/12/06 03:16:31;;;;;;;8.23;5.75;;;2.20;81.30;;;;;;5059922;28;20028;-75
2021/12/06 03:18:58;;;;;;;7.28;4.78;;;2.30;81.40;;;;;;5034651;28;20029;-75
2021/12/06 03:21:25;;;;;;;9.40;5.35;;;2.30;81.40;;;;;;5052635;28;20043;-75
2021/12/06 03:23:56;;;;;;;8.18;5.13;;;2.30;82.10;;;;;;5052480;28;20104;-75
2021/12/06 03:26:22;;;;;;;8.70;4.38;;;2.40;81.20;;;;;;5052604;28;20075;-76
2021/12/06 03:28:48;;;;;;;9.05;5.18;;;2.40;80.80;;;;;;5052437;28;20025;-76
2021/12/06 03:31:15;;;;;;;9.30;5.53;;;2.40;80.60;;;;;;5052008;28;20359;-76
2021/12/06 03:33:42;;;;;;;8.75;4.70;;;2.40;80.60;;;;;;5052761;28;20029;-76
2021/12/06 03:36:09;;;;;;;7.38;4.28;;;2.40;80.60;;;;;;5052526;28;20041;-75
2021/12/06 03:38:36;;;;;;;11.32;4.80;;;2.40;80.50;;;;;;5052594;28;20468;-76
2021/12/06 03:41:03;;;;;;;9.30;5.15;;;2.40;80.50;;;;;;5052387;28;20033;-75
2021/12/06 03:43:34;;;;;;;12.02;4.82;;;2.50;80.60;;;;;;5052549;28;20025;-77
2021/12/06 03:46:00;;;;;;;8.18;4.78;;;2.50;80.60;;;;;;5052241;28;20036;-76
2021/12/06 03:48:26;;;;;;;7.57;4.82;;;2.50;80.60;;;;;;5034639;28;20033;-75
2021/12/06 03:50:51;;;;;;;8.93;4.47;;;2.50;80.50;;;;;;5052181;28;20427;-75
2021/12/06 03:53:17;;;;;;;8.73;4.55;;;2.50;80.40;;;;;;5052684;28;20017;-75
2021/12/06 03:55:44;;;;;;;9.25;5.05;;;2.50;80.40;;;;;;5056117;28;20029;-75
2021/12/06 03:58:09;;;;;;;8.00;4.85;;;2.50;80.20;;;;;;5055259;28;20508;-75
2021/12/06 04:00:36;;;;;;;8.07;4.40;;;2.50;80.20;;;;;;5055624;28;20029;-75
2021/12/06 04:03:02;;;;;;;7.60;4.50;;;2.50;80.30;;;;;;5055585;28;20091;-75
2021/12/06 04:05:28;;;;;;;7.82;4.50;;;2.50;80.40;;;;;;5056048;28;20032;-75
2021/12/06 04:07:54;;;;;;;10.55;4.82;;;2.40;80.30;;;;;;5055929;28;20500;-75
2021/12/06 04:10:20;;;;;;;7.68;4.55;;;2.40;80.40;;;;;;5056112;28;20029;-74
2021/12/06 04:12:46;;;;;;;6.32;4.13;;;2.40;80.40;;;;;;5056165;28;20025;-74
2021/12/06 04:15:13;;;;;;;6.03;3.80;;;2.40;80.40;;;;;;5056138;28;20128;-75
2021/12/06 04:17:39;;;;;;;8.20;4.32;;;2.40;80.40;;;;;;5055768;28;20112;-74
2021/12/06 04:20:07;;;;;;;10.88;4.93;;;2.40;80.50;;;;;;5055845;28;20013;-75
2021/12/06 04:22:33;;;;;;;7.15;4.57;;;2.40;80.70;;;;;;5055727;28;20091;-75
2021/12/06 04:25:02;;;;;;;8.43;4.60;;;2.30;80.80;;;;;;5055629;28;20112;-75
2021/12/06 04:27:28;;;;;;;10.13;5.03;;;2.30;80.80;;;;;;5055532;28;20044;-75
2021/12/06 04:29:53;;;;;;;9.25;4.90;;;2.30;81.00;;;;;;5055712;28;20481;-76
2021/12/06 04:32:20;;;;;;;6.70;4.47;;;2.30;81.20;;;;;;5055619;28;20087;-75
2021/12/06 04:34:45;;;;;;;8.57;4.35;;;2.30;81.20;;;;;;5055470;28;20025;-76
2021/12/06 04:37:11;;;;;;;9.10;5.18;;;2.30;81.30;;;;;;5037457;28;20041;-76
2021/12/06 04:39:38;;;;;;;8.82;4.65;;;2.30;81.40;;;;;;5055530;28;20075;-76
2021/12/06 04:42:04;;;;;;;7.03;4.05;;;2.30;81.50;;;;;;5054875;28;20032;-76
2021/12/06 04:44:30;;;;;;;11.18;5.00;;;2.40;81.60;;;;;;5055356;28;20028;-76
2021/12/06 04:46:56;;;;;;;9.30;4.82;;;2.40;81.70;;;;;;5055235;28;20025;-76
2021/12/06 04:49:25;;;;;;;7.25;4.03;;;2.40;81.80;;;;;;5055269;28;20381;-76
2021/12/06 04:51:55;;;;;;;5.00;3.65;;;2.40;81.80;;;;;;5055174;28;20100;-76
2021/12/06 04:54:25;;;;;;;5.65;3.95;;;2.50;82.10;;;;;;5055333;28;20017;-76
2021/12/06 04:56:56;;;;;;;6.80;3.75;;;2.40;82.00;;;;;;5054214;28;20044;-76
2021/12/06 04:59:25;;;;;;;9.82;5.30;;;2.40;82.00;;;;;;5054780;28;20021;-76
2021/12/06 05:01:54;;;;;;;10.98;5.85;;;2.40;82.00;;;;;;5055017;28;20029;-75
2021/12/06 05:04:47;;;;;;;11.85;5.60;;;2.40;82.00;;;;;;5054357;28;20053;-76
2021/12/06 05:07:19;;;;;;;14.05;6.78;;;2.40;82.00;;;;;;5055109;28;20021;-76
2021/12/06 05:09:46;;;;;;;10.10;6.15;;;2.40;82.00;;;;;;5054264;28;20067;-76
2021/12/06 05:12:15;;;;;;;13.65;6.05;;;2.40;82.00;;;;;;5054945;28;20025;-76
2021/12/06 05:14:41;;;;;;;12.07;6.07;;;2.40;82.00;;;;;;5054193;28;20558;-76
2021/12/06 05:17:07;;;;;;;12.73;6.30;;;2.40;81.90;;;;;;5054095;28;20040;-76
2021/12/06 05:19:33;;;;;;;12.93;6.78;;;2.50;82.10;;;;;;5036755;28;20021;-76
2021/12/06 05:21:59;;;;;;;10.15;6.03;;;2.50;82.20;;;;;;5054872;28;20083;-76
2021/12/06 05:24:25;;;;;;;16.25;8.10;;;2.50;82.10;;;;;;5036891;28;20108;-76
2021/12/06 05:26:51;;;;;;;18.35;10.18;;;2.50;82.00;;;;;;5054749;28;20071;-75
2021/12/06 05:29:25;;;;;;;22.70;11.45;;;2.60;81.80;;;;;;5054721;28;20109;-75
2021/12/06 05:31:55;;;;;;;18.80;10.52;;;2.60;81.80;;;;;;5054043;28;20067;-76
2021/12/06 05:34:29;;;;;;;18.50;10.20;;;2.60;81.80;;;;;;5036325;28;20476;-75
2021/12/06 05:36:55;;;;;;;18.13;10.02;;;2.60;81.70;;;;;;5054412;28;20074;-74
2021/12/06 05:39:21;;;;;;;21.17;10.40;;;2.60;81.80;;;;;;5054574;28;20112;-75
2021/12/06 05:41:47;;;;;;;18.48;10.27;;;2.60;81.70;;;;;;5054400;28;20171;-75
2021/12/06 05:44:13;;;;;;;16.15;8.65;;;2.70;81.90;;;;;;5054510;28;20591;-75
2021/12/06 05:46:39;;;;;;;14.80;8.27;;;2.70;81.80;;;;;;5054332;28;20155;-75
2021/12/06 05:49:04;;;;;;;16.38;9.05;;;2.70;81.70;;;;;;5054217;28;20031;-76
2021/12/06 05:51:30;;;;;;;15.18;8.70;;;2.80;81.70;;;;;;5054137;28;20040;-76
2021/12/06 05:53:56;;;;;;;16.80;9.85;;;2.80;81.70;;;;;;5054080;28;20036;-76
2021/12/06 05:56:22;;;;;;;17.92;10.88;;;2.80;81.80;;;;;;5053842;28;20052;-76
2021/12/06 05:58:48;;;;;;;17.80;10.98;;;2.80;81.80;;;;;;5054161;28;20029;-75
2021/12/06 06:01:14;;;;;;;15.48;9.80;;;2.80;81.90;;;;;;5053636;28;20492;-76
2021/12/06 06:03:40;;;;;;;16.42;8.75;;;2.80;81.80;;;;;;5053788;28;20029;-75
2021/12/06 06:06:06;;;;;;;15.52;9.45;;;2.80;81.90;;;;;;5053871;28;20031;-76
2021/12/06 06:08:31;;;;;;;13.23;8.40;;;2.80;81.60;;;;;;5053736;28;20145;-76
2021/12/06 06:10:57;;;;;;;14.05;8.23;;;2.70;81.70;;;;;;5053559;28;20025;-75
2021/12/06 06:13:23;;;;;;;15.30;8.82;;;2.70;81.70;;;;;;5035383;28;20033;-77
2021/12/06 06:15:51;;;;;;;12.63;7.90;;;2.70;81.80;;;;;;5052998;28;20473;-76
2021/12/06 06:18:17;;;;;;;10.77;7.00;;;2.70;81.90;;;;;;5053093;28;20033;-76
2021/12/06 06:20:53;;;;;;;12.07;7.18;;;2.70;82.00;;;;;;5053470;28;20025;-76
2021/12/06 06:23:19;;;;;;;13.93;7.72;;;2.70;82.30;;;;;;5035428;28;20029;-75
2021/12/06 06:25:45;;;;;;;13.85;7.97;;;2.70;82.30;;;;;;5053004;28;20025;-76
2021/12/06 06:28:12;;;;;;;13.13;6.63;;;2.70;82.20;;;;;;5052743;28;20017;-75
2021/12/06 06:30:38;;;;;;;11.65;7.00;;;2.70;82.20;;;;;;5053020;28;20032;-75
2021/12/06 06:33:04;;;;;;;13.45;6.93;;;2.70;82.20;;;;;;5052722;28;20187;-74
2021/12/06 06:35:30;;;;;;;14.65;7.80;;;2.70;82.10;;;;;;5053276;28;20048;-73
2021/12/06 06:37:56;;;;;;;16.00;7.85;;;2.70;82.20;;;;;;5053210;28;20063;-75
2021/12/06 06:40:23;;;;;;;11.60;7.43;;;2.80;82.20;;;;;;5053412;28;20028;-75
2021/12/06 06:42:49;;;;;;;14.13;7.95;;;2.80;82.10;;;;;;5034976;28;20560;-76
2021/12/06 06:45:18;;;;;;;13.40;7.50;;;2.80;82.10;;;;;;5035142;28;20163;-74
2021/12/06 06:47:44;;;;;;;11.80;7.32;;;2.80;82.10;;;;;;5035459;28;20051;-75
2021/12/06 06:50:11;;;;;;;11.70;7.20;;;2.80;82.10;;;;;;5035243;28;20123;-75
2021/12/06 06:52:37;;;;;;;11.80;6.68;;;2.80;82.00;;;;;;5035214;28;20021;-75
2021/12/06 06:55:05;;;;;;;12.48;7.35;;;2.80;82.00;;;;;;5035088;28;20111;-74
2021/12/06 06:57:31;;;;;;;11.30;7.00;;;2.80;81.90;;;;;;5034743;28;20090;-75
2021/12/06 07:00:00;;;;;;;12.45;7.30;;;2.80;82.00;;;;;;5034708;28;20443;-76
2021/12/06 07:02:25;;;;;;;12.40;7.22;;;2.80;82.00;;;;;;5033991;28;20056;-74
2021/12/06 07:04:51;;;;;;;12.20;7.43;;;2.80;82.00;;;;;;5032441;28;20060;-75
2021/12/06 07:07:18;;;;;;;12.77;8.25;;;2.80;83.20;;;;;;5033510;28;20035;-75
2021/12/06 07:09:44;;;;;;;15.88;9.05;;;2.90;82.90;;;;;;5034212;28;20442;-74
2021/12/06 07:12:17;;;;;;;14.95;8.57;;;3.00;83.00;;;;;;5033413;28;20045;-75
2021/12/06 07:14:45;;;;;;;16.92;8.57;;;3.00;82.20;;;;;;5034856;28;20029;-75
2021/12/06 07:17:11;;;;;;;16.33;9.63;;;3.00;81.90;;;;;;5034550;28;20078;-75
2021/12/06 07:19:36;;;;;;;19.55;11.07;;;3.00;81.80;;;;;;5034931;28;20021;-75
2021/12/06 07:22:03;;;;;;;19.92;11.30;;;3.00;81.60;;;;;;5035000;28;20102;-74
2021/12/06 07:24:29;;;;;;;19.58;11.55;;;3.00;81.50;;;;;;5034639;28;20025;-73
2021/12/06 07:26:55;;;;;;;18.48;10.07;;;3.10;81.50;;;;;;5034996;28;20029;-74
2021/12/06 07:29:21;;;;;;;18.65;10.35;;;3.00;81.40;;;;;;5034707;28;20044;-73
2021/12/06 07:31:46;;;;;;;20.58;11.18;;;3.00;81.60;;;;;;5034507;28;20374;-74
2021/12/06 07:34:12;;;;;;;21.52;11.90;;;3.00;81.70;;;;;;5034814;28;20029;-73
2021/12/06 07:36:38;;;;;;;21.20;12.60;;;3.10;81.80;;;;;;5034763;28;20045;-74
2021/12/06 07:39:04;;;;;;;19.80;11.05;;;3.00;81.70;;;;;;5034519;28;20453;-73
2021/12/06 07:41:30;;;;;;;24.75;12.43;;;3.00;81.50;;;;;;5034721;28;20477;-73
2021/12/06 07:44:00;;;;;;;23.42;11.82;;;3.00;81.40;;;;;;5034397;28;20056;-75
2021/12/06 07:46:26;;;;;;;16.63;9.60;;;3.00;81.50;;;;;;5034593;28;20029;-74
2021/12/06 07:48:52;;;;;;;20.92;11.07;;;2.90;81.50;;;;;;5034417;28;20530;-74
2021/12/06 07:51:21;;;;;;;22.40;12.00;;;2.90;81.60;;;;;;5034563;28;20082;-74
2021/12/06 07:53:46;;;;;;;19.40;10.88;;;2.90;81.80;;;;;;5034506;28;20033;-74
2021/12/06 07:56:12;;;;;;;19.73;12.15;;;2.80;82.10;;;;;;5034158;28;20028;-75
2021/12/06 07:58:38;;;;;;;23.55;10.25;;;2.80;82.40;;;;;;5034362;28;20033;-75
2021/12/06 08:01:05;;;;;;;17.40;11.07;;;2.80;82.40;;;;;;5034145;28;20029;-75
2021/12/06 08:03:31;;;;;;;24.55;12.65;;;2.90;82.40;;;;;;5017660;28;20032;-75
2021/12/06 08:05:57;;;;;;;20.60;11.65;;;3.00;82.20;;;;;;5034053;28;20117;-75
2021/12/06 08:08:28;;;;;;;20.65;13.30;;;3.00;82.00;;;;;;5034223;28;20110;-75
2021/12/06 08:11:13;;;;;;;20.15;12.15;;;3.10;81.80;;;;;;5034239;28;20416;-75
2021/12/06 08:13:41;;;;;;;21.75;12.13;;;3.00;81.70;;;;;;5034372;28;20083;-76
2021/12/06 08:16:14;;;;;;;24.08;13.50;;;3.00;81.90;;;;;;5033852;28;20053;-75
2021/12/06 08:18:40;;;;;;;20.23;12.00;;;3.00;81.80;;;;;;5033859;28;20567;-74
2021/12/06 08:21:07;;;;;;;22.92;12.82;;;2.90;82.10;;;;;;5033915;28;20033;-75
2021/12/06 08:23:34;;;;;;;24.52;11.88;;;3.00;83.10;;;;;;5034575;28;20025;-79
2021/12/06 08:26:01;;;;;;;22.58;12.73;;;3.10;83.30;;;;;;5033815;28;20091;-76
2021/12/06 08:28:28;;;;;;;20.42;11.02;;;3.20;82.70;;;;;;5034136;28;20064;-75
2021/12/06 08:30:55;;;;;;;19.20;11.25;;;3.20;82.00;;;;;;5033949;28;20017;-76
2021/12/06 08:33:21;;;;;;;20.10;11.18;;;3.20;82.30;;;;;;5033733;28;20076;-76
2021/12/06 08:35:52;;;;;;;18.88;10.30;;;3.30;81.90;;;;;;5033605;28;20021;-76
2021/12/06 08:38:21;;;;;;;18.17;10.85;;;3.30;81.60;;;;;;5034037;28;20032;-75
2021/12/06 08:40:48;;;;;;;18.80;10.60;;;3.20;81.00;;;;;;5036566;28;20056;-76
2021/12/06 08:43:19;;;;;;;22.08;10.18;;;3.50;85.60;;;;;;5037716;28;20404;-75
2021/12/06 08:46:00;;;;;;;16.50;9.07;;;3.70;84.00;;;;;;5054905;28;20038;-75
2021/12/06 08:48:28;;;;;;;13.07;7.85;;;3.90;79.60;;;;;;5037751;28;20505;-76
2021/12/06 08:51:00;;;;;;;13.40;8.35;;;4.10;79.00;;;;;;5037378;28;20474;-75
2021/12/06 08:53:26;;;;;;;13.27;8.25;;;4.20;77.90;;;;;;5037522;28;20451;-74
2021/12/06 08:55:53;;;;;;;13.43;7.80;;;4.20;77.00;;;;;;5037493;28;20052;-74
2021/12/06 08:58:18;;;;;;;23.02;11.52;;;4.10;76.30;;;;;;5037603;28;20033;-74
2021/12/06 09:00:44;;;;;;;11.85;6.47;;;3.90;76.60;;;;;;5055296;28;20028;-74
2021/12/06 09:03:11;;;;;;;11.95;7.20;;;3.60;77.50;;;;;;5054990;28;20435;-74
2021/12/06 09:05:41;;;;;;;10.18;5.93;;;3.40;78.90;;;;;;5037255;28;20028;-73
2021/12/06 09:08:08;;;;;;;11.68;5.65;;;3.30;79.40;;;;;;5037088;28;20477;-74
2021/12/06 09:10:35;;;;;;;11.57;6.25;;;3.30;79.50;;;;;;5037174;28;20029;-74
2021/12/06 09:13:01;;;;;;;10.40;6.18;;;3.30;79.60;;;;;;5036845;28;20035;-73
2021/12/06 09:15:27;;;;;;;10.63;6.70;;;3.30;79.70;;;;;;5037120;28;20025;-74
2021/12/06 09:17:54;;;;;;;12.73;6.78;;;3.30;80.10;;;;;;5036334;28;20043;-74
2021/12/06 09:20:24;;;;;;;12.10;6.63;;;3.30;80.30;;;;;;5054686;28;20021;-74
2021/12/06 09:22:49;;;;;;;13.95;7.00;;;3.40;80.00;;;;;;5036665;28;20385;-75
2021/12/06 09:25:16;;;;;;;11.52;5.97;;;3.50;80.00;;;;;;5036806;28;20028;-75
2021/12/06 09:27:43;;;;;;;10.52;6.35;;;3.50;80.20;;;;;;5036569;28;20029;-75
2021/12/06 09:30:12;;;;;;;10.27;5.60;;;3.50;80.10;;;;;;5054323;28;20024;-74
2021/12/06 09:32:39;;;;;;;10.23;5.97;;;3.60;80.60;;;;;;5054398;28;20045;-75
2021/12/06 09:35:05;;;;;;;13.00;6.80;;;3.70;80.50;;;;;;5054362;28;20021;-75
2021/12/06 09:37:35;;;;;;;13.43;6.93;;;3.80;81.10;;;;;;5054548;28;20040;-75
2021/12/06 09:40:02;;;;;;;10.43;6.80;;;3.80;80.10;;;;;;5054067;28;20469;-75
2021/12/06 09:42:32;;;;;;;14.02;8.05;;;3.90;80.00;;;;;;5036295;28;20040;-75
2021/12/06 09:44:58;;;;;;;10.52;6.47;;;3.90;80.10;;;;;;5036611;28;20021;-74
2021/12/06 09:47:24;;;;;;;14.05;7.68;;;3.80;80.10;;;;;;5054041;28;20542;-74
2021/12/06 09:49:49;;;;;;;12.00;6.95;;;3.80;80.20;;;;;;5035841;28;20021;-75
2021/12/06 09:52:15;;;;;;;12.30;7.38;;;3.80;80.40;;;;;;5035021;28;20556;-76
2021/12/06 09:54:41;;;;;;;12.70;8.32;;;3.70;80.90;;;;;;5036206;28;20100;-74
2021/12/06 09:57:09;;;;;;;10.30;6.80;;;3.70;81.10;;;;;;5035773;28;20385;-75
2021/12/06 09:59:37;;;;;;;10.75;7.03;;;3.70;81.30;;;;;;5053862;28;20025;-75
2021/12/06 10:02:06;;;;;;;10.10;6.50;;;3.70;81.60;;;;;;5035930;28;20110;-77
2021/12/06 10:04:34;;;;;;;6.53;3.90;;;3.80;81.40;;;;;;5036113;28;20032;-76
2021/12/06 10:07:01;;;;;;;4.32;2.40;;;3.80;80.80;;;;;;5053594;28;20393;-76
2021/12/06 10:09:29;;;;;;;3.25;1.98;;;3.80;80.00;;;;;;5053560;28;20027;-75
2021/12/06 10:11:57;;;;;;;3.08;1.90;;;3.90;79.50;;;;;;5035721;28;20114;-74
2021/12/06 10:14:23;;;;;;;2.13;1.45;;;3.90;79.10;;;;;;5035588;28;20100;-75
2021/12/06 10:16:49;;;;;;;3.15;1.55;;;4.00;78.40;;;;;;5035521;28;20032;-75
2021/12/06 10:19:15;;;;;;;1.90;1.05;;;4.10;78.30;;;;;;5035401;28;20029;-75
2021/12/06 10:21:42;;;;;;;2.00;0.80;;;4.20;77.40;;;;;;5035531;28;20025;-75
2021/12/06 10:24:13;;;;;;;2.28;0.80;;;4.40;77.10;;;;;;5035447;28;20121;-76
2021/12/06 10:26:40;;;;;;;0.88;0.80;;;4.60;76.40;;;;;;5035451;28;20017;-75
2021/12/06 10:29:19;;;;;;;1.48;1.00;;;4.80;75.20;;;;;;5035488;28;20048;-75
2021/12/06 10:31:46;;;;;;;1.67;1.02;;;5.00;73.80;;;;;;5035437;28;20381;-75
2021/12/06 10:34:24;;;;;;;1.90;1.10;;;5.20;73.30;;;;;;5035428;28;20037;-76
2021/12/06 10:36:50;;;;;;;1.30;0.90;;;5.40;71.90;;;;;;5035204;28;20028;-75
2021/12/06 10:39:16;;;;;;;2.22;1.30;;;5.50;70.70;;;;;;5035503;28;20560;-75
2021/12/06 10:41:42;;;;;;;3.15;2.10;;;5.60;70.10;;;;;;5053042;28;20165;-76
2021/12/06 10:44:12;;;;;;;3.17;1.10;;;5.80;70.00;;;;;;5035462;28;20478;-75
2021/12/06 10:46:40;;;;;;;1.67;0.90;;;5.80;68.70;;;;;;5035376;28;20055;-75
2021/12/06 10:49:10;;;;;;;1.85;1.15;;;5.80;68.00;;;;;;5035051;28;20021;-75
2021/12/06 10:51:36;;;;;;;1.50;1.33;;;5.90;67.40;;;;;;5035378;28;20478;-75
2021/12/06 10:54:08;;;;;;;2.08;1.35;;;6.00;66.30;;;;;;5035021;28;20075;-75
2021/12/06 10:56:43;;;;;;;7.20;3.72;;;6.20;66.00;;;;;;5034737;28;20021;-75
2021/12/06 10:59:17;;;;;;;7.90;3.53;;;6.20;66.90;;;;;;5035082;28;20029;-76
2021/12/06 11:01:45;;;;;;;8.80;5.13;;;6.60;65.60;;;;;;5035056;28;20029;-76
2021/12/06 11:04:16;;;;;;;8.07;4.93;;;7.00;64.50;;;;;;5033999;28;20025;-76
2021/12/06 11:06:54;;;;;;;7.10;4.15;;;7.10;63.70;;;;;;5034772;28;20029;-75
2021/12/06 11:09:23;;;;;;;9.52;4.70;;;7.20;63.90;;;;;;5034862;28;20029;-75
2021/12/06 11:11:56;;;;;;;6.63;3.83;;;7.20;63.70;;;;;;5034900;28;20021;-75
2021/12/06 11:14:39;;;;;;;8.93;3.40;;;7.10;64.00;;;;;;5034921;28;20025;-76
2021/12/06 11:17:06;;;;;;;6.30;3.53;;;7.10;64.90;;;;;;5034774;28;20175;-76
2021/12/06 11:19:32;;;;;;;5.90;3.40;;;7.00;64.60;;;;;;5035142;28;20166;-75
2021/12/06 11:22:03;;;;;;;3.60;2.60;;;6.70;64.90;;;;;;5034967;28;20451;-76
2021/12/06 11:24:46;;;;;;;4.30;3.03;;;6.50;65.30;;;;;;5034728;28;20048;-75
2021/12/06 11:27:29;;;;;;;3.95;2.72;;;6.40;66.00;;;;;;5018234;28;20040;-75
2021/12/06 11:30:07;;;;;;;3.92;2.83;;;6.30;66.80;;;;;;5035235;28;20039;-76
2021/12/06 11:32:44;;;;;;;3.45;2.42;;;6.10;67.40;;;;;;5034837;28;20106;-74
2021/12/06 11:35:15;;;;;;;3.55;2.17;;;6.00;67.90;;;;;;5034744;28;20021;-76
2021/12/06 11:37:50;;;;;;;5.47;2.83;;;5.90;68.00;;;;;;5034313;28;20036;-74
2021/12/06 11:40:27;;;;;;;9.88;2.63;;;5.80;68.30;;;;;;5034649;28;20021;-73
2021/12/06 11:42:59;;;;;;;5.30;2.90;;;5.70;68.20;;;;;;5038772;28;20088;-74
2021/12/06 11:45:46;;;;;;;3.05;2.38;;;5.70;68.40;;;;;;5041913;28;20093;-73
2021/12/06 11:48:16;;;;;;;7.50;3.05;;;5.70;68.70;;;;;;5042953;28;20029;-74
2021/12/06 11:50:53;;;;;;;4.95;2.92;;;5.70;68.90;;;;;;5058910;28;20048;-74
2021/12/06 11:53:27;;;;;;;6.13;3.72;;;5.70;68.80;;;;;;5041990;28;20087;-74
2021/12/06 11:55:59;;;;;;;6.30;3.60;;;5.60;68.20;;;;;;5058790;28;20075;-75
2021/12/06 11:58:32;;;;;;;5.97;4.25;;;5.50;68.30;;;;;;5036319;28;20033;-75
2021/12/06 12:01:12;;;;;;;7.30;4.53;;;5.60;68.90;;;;;;5034072;28;20453;-74
2021/12/06 12:03:40;;;;;;;7.80;4.47;;;5.40;68.90;;;;;;5034521;28;20024;-75
2021/12/06 12:06:42;;;;;;;7.32;4.70;;;5.30;70.10;;;;;;5034066;28;20028;-74
2021/12/06 12:09:20;;;;;;;7.15;4.03;;;5.30;70.60;;;;;;5033657;28;20033;-74
2021/12/06 12:12:10;;;;;;;8.43;4.32;;;5.20;71.00;;;;;;5034468;28;20028;-75
2021/12/06 12:14:54;;;;;;;7.22;4.90;;;5.30;70.90;;;;;;5034587;28;20036;-74
2021/12/06 12:17:27;;;;;;;8.75;5.20;;;5.20;72.50;;;;;;5037261;28;20073;-76
2021/12/06 12:19:56;;;;;;;9.13;5.10;;;5.20;73.10;;;;;;5037969;28;20115;-75
2021/12/06 12:22:23;;;;;;;7.35;4.63;;;5.40;72.70;;;;;;5055736;28;20029;-73
2021/12/06 12:24:54;;;;;;;5.93;3.70;;;5.30;71.80;;;;;;5055622;28;20103;-75
2021/12/06 12:27:30;;;;;;;5.28;3.30;;;5.30;71.10;;;;;;5055537;28;20024;-75
2021/12/06 12:30:02;;;;;;;4.45;3.40;;;5.60;70.20;;;;;;5037341;28;20572;-76
2021/12/06 12:32:29;;;;;;;5.07;3.50;;;6.20;68.10;;;;;;5055322;28;20049;-74
2021/12/06 12:34:58;;;;;;;3.95;2.50;;;7.90;65.60;;;;;;5055067;28;20032;-75
2021/12/06 12:37:25;;;;;;;3.75;2.55;;;10.30;58.80;;;;;;5055125;28;20544;-75
2021/12/06 12:40:06;;;;;;;4.55;3.65;;;12.00;49.00;;;;;;5037541;28;20025;-77
2021/12/06 12:42:33;;;;;;;3.92;2.90;;;12.50;44.50;;;;;;5055546;28;20083;-75
2021/12/06 12:45:00;;;;;;;4.78;3.50;;;12.10;43.50;;;;;;5037391;28;20021;-76
2021/12/06 12:47:31;;;;;;;4.00;2.80;;;11.60;44.80;;;;;;5037414;28;20060;-73
2021/12/06 12:50:09;;;;;;;4.43;2.50;;;11.20;46.40;;;;;;5055155;28;20049;-75
2021/12/06 12:52:42;;;;;;;4.90;2.90;;;12.40;46.00;;;;;;5036982;28;20025;-74
2021/12/06 12:55:29;;;;;;;4.60;3.20;;;15.10;41.10;;;;;;5037110;28;20025;-77
2021/12/06 12:58:26;;;;;;;2.92;2.63;;;17.70;34.20;;;;;;5055012;28;20036;-77
2021/12/06 13:01:09;;;;;;;3.53;2.58;;;19.50;30.20;;;;;;5043054;28;20041;-76
2021/12/06 13:03:39;;;;;;;4.10;2.45;;;20.10;27.20;;;;;;5055499;28;20025;-77